createdAt,value
2018-03-24T00:00:39.469Z,90.54
2018-03-24T00:03:05.459Z,90.54
2018-03-24T00:05:31.495Z,90.49
2018-03-24T00:07:57.580Z,90.53
2018-03-24T00:10:23.584Z,90.75
2018-03-24T00:12:49.546Z,90.77
2018-03-24T00:15:15.517Z,90.73
2018-03-24T00:17:41.557Z,90.65
2018-03-24T00:20:07.606Z,90.63
2018-03-24T00:22:33.626Z,90.70
2018-03-24T00:24:59.641Z,90.59
2018-03-24T00:27:25.720Z,90.39
2018-03-24T00:29:51.749Z,90.14
2018-03-24T00:32:17.753Z,89.95
2018-03-24T00:34:43.717Z,89.91
2018-03-24T00:37:09.732Z,90.21
2018-03-24T00:39:35.723Z,90.51
2018-03-24T00:42:01.789Z,90.88
2018-03-24T00:44:27.810Z,90.81
2018-03-24T00:46:53.901Z,91.18
2018-03-24T00:49:19.909Z,90.95
2018-03-24T00:51:45.957Z,90.71
2018-03-24T00:54:12.007Z,90.63
2018-03-24T00:56:38.073Z,91.01
2018-03-24T00:59:04.125Z,90.84
2018-03-24T01:01:30.170Z,90.40
2018-03-24T01:03:56.259Z,90.35
2018-03-24T01:06:22.261Z,90.88
2018-03-24T01:08:48.285Z,90.81
2018-03-24T01:11:14.272Z,90.96
2018-03-24T01:13:40.294Z,90.65
2018-03-24T01:16:06.405Z,90.34
2018-03-24T01:18:32.422Z,90.15
2018-03-24T01:20:58.442Z,90.36
2018-03-24T01:23:24.446Z,90.63
2018-03-24T01:25:50.472Z,91.06
2018-03-24T01:28:16.469Z,91.19
2018-03-24T01:30:42.494Z,91.28
2018-03-24T01:33:08.472Z,91.82
2018-03-24T01:35:34.500Z,92.24
2018-03-24T01:38:00.492Z,92.22
2018-03-24T01:40:27.015Z,91.93
2018-03-24T01:42:53.061Z,92.06
2018-03-24T01:45:19.069Z,92.06
2018-03-24T01:47:45.084Z,91.63
2018-03-24T01:50:11.074Z,91.64
2018-03-24T01:52:37.046Z,91.81
2018-03-24T01:55:03.315Z,91.83
2018-03-24T01:57:29.342Z,91.57
2018-03-24T01:59:55.430Z,91.26
2018-03-24T02:02:21.485Z,90.90
2018-03-24T02:04:47.492Z,90.85
2018-03-24T02:07:13.493Z,90.87
2018-03-24T02:09:39.461Z,91.47
2018-03-24T02:12:05.466Z,91.68
2018-03-24T02:14:31.610Z,91.36
2018-03-24T02:16:58.035Z,91.01
2018-03-24T02:19:24.060Z,91.66
2018-03-24T02:21:50.092Z,91.59
2018-03-24T02:24:16.342Z,91.38
2018-03-24T02:26:42.378Z,91.22
2018-03-24T02:29:08.337Z,91.05
2018-03-24T02:31:34.382Z,90.89
2018-03-24T02:34:00.339Z,90.45
2018-03-24T02:36:26.348Z,90.17
2018-03-24T02:38:52.368Z,89.79
2018-03-24T02:41:18.414Z,89.62
2018-03-24T02:43:44.504Z,89.66
2018-03-24T02:46:10.915Z,89.45
2018-03-24T02:48:36.922Z,89.03
2018-03-24T02:51:02.974Z,88.63
2018-03-24T02:53:29.004Z,88.42
2018-03-24T02:55:55.002Z,88.37
2018-03-24T02:58:21.044Z,88.30
2018-03-24T03:00:47.048Z,88.70
2018-03-24T03:03:13.133Z,89.42
2018-03-24T03:05:39.089Z,89.65
2018-03-24T03:08:05.153Z,89.82
2018-03-24T03:10:31.217Z,89.19
2018-03-24T03:12:57.252Z,89.27
2018-03-24T03:15:23.309Z,89.46
2018-03-24T03:17:49.388Z,89.34
2018-03-24T03:20:15.469Z,89.18
2018-03-24T03:22:41.582Z,88.89
2018-03-24T03:25:07.749Z,88.73
2018-03-24T03:27:33.854Z,88.53
2018-03-24T03:29:59.913Z,88.26
2018-03-24T03:32:26.001Z,88.15
2018-03-24T03:34:52.090Z,88.17
2018-03-24T03:37:18.122Z,88.31
2018-03-24T03:39:44.153Z,88.14
2018-03-24T03:42:10.141Z,88.58
2018-03-24T03:44:36.213Z,88.33
2018-03-24T03:47:02.583Z,88.27
2018-03-24T03:49:28.590Z,88.64
2018-03-24T03:51:54.677Z,88.41
2018-03-24T03:54:20.692Z,88.54
2018-03-24T03:56:46.694Z,88.59
2018-03-24T03:59:12.769Z,88.37
2018-03-24T04:01:38.818Z,88.19
2018-03-24T04:04:04.830Z,87.79
2018-03-24T04:06:31.090Z,88.21
2018-03-24T04:08:57.039Z,88.90
2018-03-24T04:11:23.049Z,89.51
2018-03-24T04:13:49.046Z,90.39
2018-03-24T04:16:15.058Z,90.42
2018-03-24T04:18:41.089Z,90.52
2018-03-24T04:21:07.433Z,90.61
2018-03-24T04:23:33.429Z,90.66
2018-03-24T04:25:59.506Z,89.76
2018-03-24T04:28:25.601Z,88.39
2018-03-24T04:30:51.612Z,87.49
2018-03-24T04:33:17.673Z,87.75
2018-03-24T04:35:43.713Z,87.26
2018-03-24T04:38:09.714Z,88.06
2018-03-24T04:40:35.674Z,87.54
2018-03-24T04:43:01.746Z,87.36
2018-03-24T04:45:28.042Z,87.10
2018-03-24T04:47:54.053Z,87.62
2018-03-24T04:50:20.067Z,88.92
2018-03-24T04:52:46.425Z,90.62
2018-03-24T04:55:12.443Z,90.90
2018-03-24T04:57:38.495Z,92.10
2018-03-24T05:00:04.489Z,92.11
2018-03-24T05:02:30.500Z,91.66
2018-03-24T05:04:56.515Z,91.91
2018-03-24T05:07:22.474Z,92.58
2018-03-24T05:09:48.478Z,92.89
2018-03-24T05:12:14.504Z,93.49
2018-03-24T05:14:40.439Z,93.89
2018-03-24T05:17:06.473Z,94.91
2018-03-24T05:19:32.461Z,94.87
2018-03-24T05:21:58.494Z,94.59
2018-03-24T05:24:24.485Z,94.32
2018-03-24T05:26:50.822Z,94.75
2018-03-24T05:29:16.870Z,94.94
2018-03-24T05:31:42.889Z,94.90
2018-03-24T05:34:08.909Z,95.02
2018-03-24T05:36:34.902Z,94.93
2018-03-24T05:39:00.942Z,94.66
2018-03-24T05:41:26.958Z,94.30
2018-03-24T05:43:53.220Z,93.87
2018-03-24T05:46:19.455Z,93.90
2018-03-24T05:48:45.534Z,94.16
2018-03-24T05:51:11.518Z,93.98
2018-03-24T05:53:37.479Z,93.92
2018-03-24T05:56:03.869Z,94.18
2018-03-24T05:58:30.729Z,93.92
2018-03-24T06:00:57.212Z,93.39
2018-03-24T06:03:23.237Z,93.12
2018-03-24T06:05:49.221Z,92.94
2018-03-24T06:08:15.268Z,93.20
2018-03-24T06:10:41.301Z,93.70
2018-03-24T06:13:07.365Z,94.04
2018-03-24T06:15:33.434Z,93.71
2018-03-24T06:17:59.378Z,93.26
2018-03-24T06:20:25.381Z,93.39
2018-03-24T06:22:51.412Z,93.24
2018-03-24T06:25:17.461Z,92.92
2018-03-24T06:27:43.473Z,93.62
2018-03-24T06:30:12.366Z,93.80
2018-03-24T06:32:38.437Z,93.58
2018-03-24T06:35:04.437Z,93.37
2018-03-24T06:37:30.471Z,93.46
2018-03-24T06:39:56.741Z,93.39
2018-03-24T06:42:22.711Z,92.95
2018-03-24T06:44:48.772Z,92.86
2018-03-24T06:47:14.749Z,93.63
2018-03-24T06:49:40.754Z,93.98
2018-03-24T06:52:06.746Z,94.10
2018-03-24T06:54:32.765Z,94.50
2018-03-24T06:56:58.806Z,94.13
2018-03-24T06:59:24.813Z,93.38
2018-03-24T07:01:50.850Z,93.02
2018-03-24T07:04:16.850Z,92.44
2018-03-24T07:06:42.829Z,91.68
2018-03-24T07:09:08.838Z,91.45
2018-03-24T07:11:34.846Z,91.01
2018-03-24T07:14:00.891Z,90.20
2018-03-24T07:16:26.917Z,88.95
2018-03-24T07:18:52.990Z,88.04
2018-03-24T07:21:19.005Z,87.53
2018-03-24T07:23:45.009Z,87.09
2018-03-24T07:26:11.032Z,86.82
2018-03-24T07:28:37.057Z,86.30
2018-03-24T07:31:03.110Z,86.04
2018-03-24T07:33:29.150Z,85.59
2018-03-24T07:35:55.171Z,85.25
2018-03-24T07:38:21.189Z,84.64
2018-03-24T07:40:47.157Z,83.90
2018-03-24T07:43:13.092Z,83.48
2018-03-24T07:45:39.111Z,82.25
2018-03-24T07:48:05.193Z,81.74
2018-03-24T07:50:31.251Z,81.48
2018-03-24T07:52:57.209Z,79.99
2018-03-24T07:55:23.204Z,78.49
2018-03-24T07:57:49.259Z,79.01
2018-03-24T08:00:15.345Z,78.29
2018-03-24T08:02:41.336Z,77.47
2018-03-24T08:05:07.490Z,75.77
2018-03-24T08:07:33.533Z,74.80
2018-03-24T08:09:59.536Z,74.31
2018-03-24T08:12:25.549Z,72.70
2018-03-24T08:14:51.709Z,72.16
2018-03-24T08:17:17.733Z,71.40
2018-03-24T08:19:43.772Z,70.92
2018-03-24T08:22:09.800Z,70.01
2018-03-24T08:24:35.862Z,69.33
2018-03-24T08:27:01.909Z,68.70
2018-03-24T08:29:27.923Z,67.60
2018-03-24T08:31:53.961Z,69.28
2018-03-24T08:34:19.973Z,67.85
2018-03-24T08:36:46.042Z,67.54
2018-03-24T08:39:12.065Z,66.55
2018-03-24T08:41:38.078Z,66.04
2018-03-24T08:44:04.191Z,65.88
2018-03-24T08:46:30.273Z,66.57
2018-03-24T08:48:56.273Z,66.06
2018-03-24T08:51:22.440Z,65.52
2018-03-24T08:53:48.476Z,63.71
2018-03-24T08:56:14.563Z,63.99
2018-03-24T08:58:40.582Z,62.90
2018-03-24T09:01:06.589Z,62.54
2018-03-24T09:03:32.631Z,64.20
2018-03-24T09:05:58.657Z,61.91
2018-03-24T09:08:24.728Z,60.80
2018-03-24T09:10:50.730Z,60.39
2018-03-24T09:13:16.789Z,60.26
2018-03-24T09:15:42.894Z,59.95
2018-03-24T09:18:08.917Z,59.31
2018-03-24T09:20:34.930Z,58.91
2018-03-24T09:23:01.028Z,56.84
2018-03-24T09:25:27.004Z,58.49
2018-03-24T09:27:53.045Z,59.23
2018-03-24T09:30:19.060Z,59.23
2018-03-24T09:32:45.078Z,57.90
2018-03-24T09:35:11.119Z,56.75
2018-03-24T09:37:37.409Z,54.79
2018-03-24T09:40:03.518Z,53.83
2018-03-24T09:42:29.721Z,53.03
2018-03-24T09:44:55.734Z,55.63
2018-03-24T09:47:21.798Z,53.61
2018-03-24T09:49:47.818Z,52.22
2018-03-24T09:52:13.937Z,48.09
2018-03-24T09:54:39.954Z,49.31
2018-03-24T09:57:06.057Z,50.78
2018-03-24T09:59:32.113Z,46.27
2018-03-24T10:01:58.098Z,44.64
2018-03-24T10:04:24.212Z,46.32
2018-03-24T10:06:50.305Z,47.49
2018-03-24T10:09:16.334Z,48.12
2018-03-24T10:11:42.422Z,48.46
2018-03-24T10:14:08.388Z,47.19
2018-03-24T10:16:34.408Z,47.69
2018-03-24T10:19:00.410Z,48.48
2018-03-24T10:21:47.269Z,49.20
2018-03-24T10:24:28.997Z,51.70
2018-03-24T10:26:55.037Z,52.31
2018-03-24T10:29:21.008Z,52.94
2018-03-24T10:31:47.057Z,53.39
2018-03-24T10:34:13.058Z,52.51
2018-03-24T10:36:39.034Z,51.83
2018-03-24T10:39:05.130Z,51.55
2018-03-24T10:41:31.185Z,52.30
2018-03-24T10:43:57.237Z,51.98
2018-03-24T10:46:23.246Z,50.42
2018-03-24T10:48:49.250Z,51.00
2018-03-24T10:51:15.246Z,50.47
2018-03-24T10:53:41.283Z,51.00
2018-03-24T10:56:07.308Z,50.65
2018-03-24T10:58:33.350Z,50.50
2018-03-24T11:01:05.578Z,50.16
2018-03-24T11:03:31.605Z,49.59
2018-03-24T11:05:57.673Z,49.57
2018-03-24T11:08:23.698Z,50.22
2018-03-24T11:10:49.807Z,50.03
2018-03-24T11:13:15.755Z,50.04
2018-03-24T11:15:41.796Z,49.83
2018-03-24T11:18:07.818Z,50.27
2018-03-24T11:20:34.393Z,50.00
2018-03-24T11:23:00.441Z,50.46
2018-03-24T11:25:26.472Z,48.94
2018-03-24T11:27:52.474Z,48.05
2018-03-24T11:30:18.616Z,47.61
2018-03-24T11:32:44.697Z,47.58
2018-03-24T11:35:10.753Z,47.89
2018-03-24T11:37:36.775Z,45.99
2018-03-24T11:40:02.844Z,47.03
2018-03-24T11:42:28.893Z,46.72
2018-03-24T11:44:54.904Z,47.71
2018-03-24T11:47:21.022Z,46.71
2018-03-24T11:49:47.027Z,44.78
2018-03-24T11:52:13.081Z,44.91
2018-03-24T11:54:43.949Z,47.48
2018-03-24T11:57:09.979Z,48.03
2018-03-24T11:59:36.018Z,48.22
2018-03-24T12:02:02.052Z,48.80
2018-03-24T12:04:28.128Z,49.61
2018-03-24T12:06:54.221Z,50.01
2018-03-24T12:09:20.349Z,47.55
2018-03-24T12:11:46.369Z,46.39
2018-03-24T12:14:12.384Z,47.36
2018-03-24T12:16:38.412Z,45.92
2018-03-24T12:19:04.409Z,46.11
2018-03-24T12:21:30.512Z,46.34
2018-03-24T12:23:56.622Z,45.79
2018-03-24T12:26:22.738Z,44.63
2018-03-24T12:28:48.839Z,44.94
2018-03-24T12:31:14.877Z,45.47
2018-03-24T12:33:40.919Z,43.99
2018-03-24T12:36:06.944Z,45.91
2018-03-24T12:38:32.965Z,48.89
2018-03-24T12:40:58.986Z,50.08
2018-03-24T12:43:24.984Z,50.16
2018-03-24T12:45:51.110Z,50.30
2018-03-24T12:48:17.376Z,50.48
2018-03-24T12:50:43.421Z,50.78
2018-03-24T12:53:09.471Z,50.96
2018-03-24T12:55:35.546Z,50.79
2018-03-24T12:58:02.267Z,51.33
2018-03-24T13:00:28.478Z,51.28
2018-03-24T13:02:54.492Z,50.21
2018-03-24T13:05:20.522Z,50.49
2018-03-24T13:07:46.491Z,50.62
2018-03-24T13:10:12.553Z,49.94
2018-03-24T13:12:38.606Z,50.70
2018-03-24T13:15:04.622Z,49.48
2018-03-24T13:17:30.610Z,48.33
2018-03-24T13:19:56.733Z,49.00
2018-03-24T13:22:22.760Z,47.45
2018-03-24T13:24:48.885Z,46.47
2018-03-24T13:27:14.915Z,45.83
2018-03-24T13:29:40.941Z,46.31
2018-03-24T13:32:06.961Z,45.79
2018-03-24T13:34:32.980Z,45.94
2018-03-24T13:36:59.010Z,44.67
2018-03-24T13:39:25.030Z,45.22
2018-03-24T13:41:51.017Z,43.23
2018-03-24T13:44:17.045Z,43.62
2018-03-24T13:46:43.066Z,44.41
2018-03-24T13:49:09.134Z,46.11
2018-03-24T13:51:35.122Z,44.51
2018-03-24T13:54:01.141Z,44.67
2018-03-24T13:56:27.177Z,44.16
2018-03-24T13:58:53.181Z,42.81
2018-03-24T14:01:19.197Z,41.52
2018-03-24T14:03:45.244Z,39.38
2018-03-24T14:06:11.262Z,39.08
2018-03-24T14:08:37.327Z,37.93
2018-03-24T14:11:03.330Z,38.60
2018-03-24T14:13:29.350Z,38.41
2018-03-24T14:15:55.386Z,39.19
2018-03-24T14:18:21.397Z,39.63
2018-03-24T14:20:47.441Z,40.54
2018-03-24T14:23:13.500Z,39.52
2018-03-24T14:25:39.460Z,39.43
2018-03-24T14:28:05.509Z,40.26
2018-03-24T14:30:31.584Z,41.24
2018-03-24T14:32:57.558Z,40.93
2018-03-24T14:35:23.573Z,39.84
2018-03-24T14:37:49.604Z,40.42
2018-03-24T14:40:15.605Z,38.37
2018-03-24T14:42:41.587Z,38.03
2018-03-24T14:45:07.617Z,39.97
2018-03-24T14:47:33.686Z,40.70
2018-03-24T14:49:59.813Z,39.11
2018-03-24T14:52:25.825Z,39.18
2018-03-24T14:54:51.882Z,39.74
2018-03-24T14:57:17.906Z,39.13
2018-03-24T14:59:43.909Z,38.73
2018-03-24T15:02:10.017Z,38.28
2018-03-24T15:04:36.082Z,38.02
2018-03-24T15:07:02.173Z,38.98
2018-03-24T15:09:28.180Z,39.72
2018-03-24T15:11:54.213Z,38.17
2018-03-24T15:14:20.306Z,38.77
2018-03-24T15:16:46.317Z,40.19
2018-03-24T15:19:12.461Z,38.39
2018-03-24T15:21:38.463Z,38.91
2018-03-24T15:24:04.509Z,40.59
2018-03-24T15:26:30.580Z,41.16
2018-03-24T15:32:14.773Z,39.21
2018-03-24T15:34:53.074Z,39.67
2018-03-24T15:37:19.092Z,40.21
2018-03-24T15:39:45.117Z,39.36
2018-03-24T15:42:11.131Z,38.85
2018-03-24T15:44:37.160Z,39.63
2018-03-24T15:47:03.185Z,40.81
2018-03-24T15:49:29.228Z,41.03
2018-03-24T15:51:55.318Z,41.77
2018-03-24T15:54:21.436Z,43.15
2018-03-24T15:56:47.469Z,43.28
2018-03-24T15:59:13.569Z,45.08
2018-03-24T16:01:39.579Z,46.62
2018-03-24T16:04:05.621Z,46.54
2018-03-24T16:06:31.635Z,45.70
2018-03-24T16:08:57.665Z,46.13
2018-03-24T16:11:23.673Z,46.71
2018-03-24T16:13:49.679Z,46.86
2018-03-24T16:16:15.690Z,47.64
2018-03-24T16:18:41.700Z,47.85
2018-03-24T16:21:07.739Z,48.43
2018-03-24T16:23:33.745Z,47.99
2018-03-24T16:25:59.755Z,48.82
2018-03-24T16:28:25.768Z,48.69
2018-03-24T16:30:51.770Z,49.39
2018-03-24T16:33:17.834Z,49.02
2018-03-24T16:35:43.884Z,49.05
2018-03-24T16:38:09.896Z,49.37
2018-03-24T16:40:35.986Z,49.89
2018-03-24T16:43:02.024Z,49.76
2018-03-24T16:45:27.996Z,50.05
2018-03-24T16:47:54.074Z,50.01
2018-03-24T16:50:20.086Z,50.29
2018-03-24T16:52:46.142Z,50.41
2018-03-24T16:55:12.167Z,50.65
2018-03-24T16:57:38.204Z,51.00
2018-03-24T17:00:04.347Z,51.40
2018-03-24T17:02:30.387Z,50.94
2018-03-24T17:04:56.471Z,51.21
2018-03-24T17:07:22.501Z,51.26
2018-03-24T17:09:48.645Z,52.27
2018-03-24T17:12:14.738Z,52.89
2018-03-24T17:14:40.782Z,52.82
2018-03-24T17:17:06.857Z,53.58
2018-03-24T17:19:32.919Z,53.60
2018-03-24T17:21:58.915Z,53.70
2018-03-24T17:24:25.103Z,54.11
2018-03-24T17:26:51.189Z,54.33
2018-03-24T17:29:17.186Z,54.57
2018-03-24T17:31:43.224Z,55.28
2018-03-24T17:34:09.238Z,55.14
2018-03-24T17:36:35.240Z,55.50
2018-03-24T17:39:01.251Z,56.12
2018-03-24T17:41:27.243Z,56.52
2018-03-24T17:43:53.390Z,57.15
2018-03-24T17:46:19.423Z,57.41
2018-03-24T17:48:45.401Z,57.51
2018-03-24T17:51:11.458Z,58.06
2018-03-24T17:53:37.488Z,58.61
2018-03-24T17:56:03.540Z,58.63
2018-03-24T17:58:30.109Z,59.12
2018-03-24T18:00:56.130Z,59.66
2018-03-24T18:03:22.178Z,60.09
2018-03-24T18:05:48.265Z,60.23
2018-03-24T18:08:14.273Z,60.48
2018-03-24T18:10:40.274Z,60.67
2018-03-24T18:13:06.376Z,60.45
2018-03-24T18:15:32.767Z,60.73
2018-03-24T18:17:58.785Z,60.29
2018-03-24T18:20:24.805Z,60.34
2018-03-24T18:22:50.850Z,60.45
2018-03-24T18:25:16.838Z,60.46
2018-03-24T18:27:42.913Z,60.99
2018-03-24T18:30:08.960Z,61.16
2018-03-24T18:32:34.955Z,61.62
2018-03-24T18:35:01.742Z,61.46
2018-03-24T18:37:27.754Z,62.16
2018-03-24T18:39:53.802Z,61.80
2018-03-24T18:42:19.882Z,61.52
2018-03-24T18:44:45.922Z,61.94
2018-03-24T18:47:11.964Z,62.00
2018-03-24T18:49:38.008Z,62.12
2018-03-24T18:52:04.044Z,62.09
2018-03-24T18:54:30.075Z,62.10
2018-03-24T18:56:56.146Z,62.12
2018-03-24T18:59:22.181Z,62.69
2018-03-24T19:01:48.279Z,62.48
2018-03-24T19:04:14.374Z,62.64
2018-03-24T19:06:40.439Z,62.29
2018-03-24T19:09:06.498Z,63.00
2018-03-24T19:11:32.618Z,63.57
2018-03-24T19:13:58.691Z,63.66
2018-03-24T19:16:24.766Z,63.67
2018-03-24T19:18:50.798Z,64.02
2018-03-24T19:21:16.906Z,64.28
2018-03-24T19:23:42.946Z,64.62
2018-03-24T19:26:08.974Z,64.35
2018-03-24T19:28:35.002Z,64.55
2018-03-24T19:31:01.050Z,64.91
2018-03-24T19:33:27.145Z,65.22
2018-03-24T19:35:53.584Z,65.02
2018-03-24T19:38:19.694Z,65.09
2018-03-24T19:40:45.739Z,65.00
2018-03-24T19:43:11.774Z,65.53
2018-03-24T19:45:37.866Z,65.42
2018-03-24T19:48:03.907Z,65.58
2018-03-24T19:50:29.963Z,65.77
2018-03-24T19:52:56.173Z,65.40
2018-03-24T19:55:22.210Z,66.14
2018-03-24T19:57:48.277Z,66.17
2018-03-24T20:00:14.290Z,66.21
2018-03-24T20:02:40.298Z,66.23
2018-03-24T20:05:06.367Z,66.51
2018-03-24T20:07:32.470Z,66.67
2018-03-24T20:09:58.588Z,67.39
2018-03-24T20:12:32.459Z,68.38
2018-03-24T20:14:58.623Z,67.89
2018-03-24T20:17:24.649Z,67.94
2018-03-24T20:19:50.702Z,68.35
2018-03-24T20:22:16.767Z,68.49
2018-03-24T20:24:42.838Z,69.09
2018-03-24T20:27:08.943Z,69.93
2018-03-24T20:29:35.083Z,69.57
2018-03-24T20:32:01.187Z,69.19
2018-03-24T20:34:27.542Z,69.65
2018-03-24T20:36:53.709Z,70.04
2018-03-24T20:39:19.938Z,69.66
2018-03-24T20:41:45.968Z,69.96
2018-03-24T20:44:12.056Z,69.81
2018-03-24T20:46:38.034Z,69.66
2018-03-24T20:49:04.095Z,69.76
2018-03-24T20:51:30.169Z,70.19
2018-03-24T20:53:56.188Z,70.01
2018-03-24T20:56:22.195Z,69.68
2018-03-24T20:58:48.278Z,69.91
2018-03-24T21:01:14.303Z,69.36
2018-03-24T21:03:40.363Z,69.68
2018-03-24T21:06:06.406Z,70.37
2018-03-24T21:08:32.482Z,70.60
2018-03-24T21:10:58.566Z,70.95
2018-03-24T21:13:24.574Z,71.25
2018-03-24T21:15:50.565Z,71.23
2018-03-24T21:18:16.628Z,72.05
2018-03-24T21:20:42.637Z,73.08
2018-03-24T21:23:08.956Z,74.12
2018-03-24T21:25:35.318Z,73.77
2018-03-24T21:28:01.323Z,73.55
2018-03-24T21:30:27.380Z,73.08
2018-03-24T21:32:53.347Z,73.16
2018-03-24T21:35:19.415Z,73.09
2018-03-24T21:37:45.428Z,73.16
2018-03-24T21:40:11.442Z,72.23
2018-03-24T21:42:37.485Z,72.68
2018-03-24T21:45:03.478Z,72.57
2018-03-24T21:47:29.490Z,73.56
2018-03-24T21:49:55.491Z,73.89
2018-03-24T21:52:21.502Z,73.97
2018-03-24T21:54:47.511Z,73.59
2018-03-24T21:57:13.505Z,73.19
2018-03-24T21:59:39.522Z,74.43
2018-03-24T22:02:05.568Z,73.82
2018-03-24T22:04:31.605Z,74.00
2018-03-24T22:06:57.747Z,74.37
2018-03-24T22:09:23.811Z,73.62
2018-03-24T22:11:49.839Z,73.88
2018-03-24T22:14:15.916Z,74.93
2018-03-24T22:16:42.015Z,74.74
2018-03-24T22:19:08.082Z,74.60
2018-03-24T22:21:34.102Z,74.25
2018-03-24T22:24:00.194Z,75.17
2018-03-24T22:26:26.322Z,75.00
2018-03-24T22:28:52.348Z,75.33
2018-03-24T22:31:18.518Z,75.23
2018-03-24T22:33:44.475Z,74.43
2018-03-24T22:36:10.545Z,75.06
2018-03-24T22:38:36.626Z,76.06
2018-03-24T22:41:02.658Z,76.77
2018-03-24T22:43:28.686Z,76.13
2018-03-24T22:45:54.671Z,76.32
2018-03-24T22:48:20.763Z,75.98
2018-03-24T22:50:46.807Z,75.97
2018-03-24T22:53:12.858Z,75.67
2018-03-24T22:55:38.949Z,75.33
2018-03-24T22:58:05.041Z,75.31
2018-03-24T23:00:31.007Z,75.48
2018-03-24T23:02:57.013Z,76.61
2018-03-24T23:05:23.037Z,76.84
2018-03-24T23:07:49.112Z,76.21
2018-03-24T23:10:15.173Z,77.01
2018-03-24T23:12:41.203Z,76.32
2018-03-24T23:15:07.236Z,76.43
2018-03-24T23:17:33.238Z,76.58
2018-03-24T23:19:59.243Z,76.72
2018-03-24T23:22:25.266Z,76.65
2018-03-24T23:24:51.263Z,76.77
2018-03-24T23:27:17.301Z,76.76
2018-03-24T23:29:43.317Z,76.95
2018-03-24T23:32:09.337Z,76.92
2018-03-24T23:34:35.337Z,75.92
2018-03-24T23:37:01.362Z,76.66
2018-03-24T23:39:27.393Z,76.94
2018-03-24T23:41:53.465Z,77.54
2018-03-24T23:44:19.479Z,77.75
2018-03-24T23:46:45.569Z,77.63
2018-03-24T23:49:11.624Z,78.87
2018-03-24T23:51:37.646Z,81.97
2018-03-24T23:54:03.674Z,81.55
2018-03-24T23:56:29.698Z,80.06
2018-03-24T23:58:55.702Z,79.62
